PAGINA EN CONSTRUCCIÓN

DISCULPEN POSIBLES FALLOS



Daganzo more information Daganzo


Meteosat more information blitzortung!


Radar lluvias  rain snow radar


Visita nuestra red de sitios de meteo:

Documentation for the template used

MeteoibericaRed estaciones Meteorologicas



Sin Advertencias climatologicas .En este momento tenemos Nivel Verde.    No hay Alarmas

Pagina Historial Weather Underground texto

Diario Resumen Julio 22, 2018 Unidades:  Métrico    impérial   Tanto
« Anterior Dia
Siguiente Dia »
Diario Semana Mensual Anual Personalizada
  Actual: Alto: Baja: Media:
Temperatura: -0.6 °C -17.8 °C -9.1 °C -5.3 °C
Punto de rocío: -8 °C -17.8 °C -9.1 °C -8.1 °C
Humedad: 45 % Humidity % 44 % 76 %
Velocidad del Viento: 15 km/h 0 km/h 3.1 km/h 20 km/h
Ráfagas de viento: 8 km/h 0 km/h - -
Viento:North - - North
Pression baro: 34310.3 hPa 0 hPa 34303.6 hPa -
Précipitaciones: 0 mm      
Historical Graphs
 
 
Datos de tabla para Julio 22, 2018
Tiempo Temperatura Punto de rocío Pression baro Viento Velocidad del Viento Ráfagas de viento Humedad Las precipitaciones Rate ( Hora )
-17.8 °C -17.8 °C 0 hPa Calm     Humidity % 0 mm
00:04 -5.9 °C -8.9 °C 34381.4 hPa North 45.4 km/h 29.5 km/h 71 % 0 mm
00:09 -6 °C -8.8 °C 34378.1 hPa North 32.8 km/h 14 km/h 73 % 0 mm
00:14 -6.2 °C -8.8 °C 34381.4 hPa North 39.4 km/h 25.4 km/h 74 % 0 mm
00:19 -6.2 °C -8.9 °C 34378.1 hPa North 32.8 km/h 15.6 km/h 74 % 0 mm
00:24 -6.3 °C -8.9 °C 34378.1 hPa North 44.7 km/h 23.8 km/h 75 % 0 mm
00:29 -6.4 °C -8.8 °C 34378.1 hPa North 38.8 km/h 23.8 km/h 76 % 0 mm
00:36 -6.6 °C -8.8 °C 34381.4 hPa North 53.6 km/h 31.4 km/h 78 % 0 mm
00:39 -6.7 °C -8.6 °C 34384.8 hPa North 47.6 km/h 27.7 km/h 81 % 0 mm
00:43 -6.7 °C -8.5 °C 34388.2 hPa North 44.7 km/h 17.9 km/h 82 % 0 mm
00:49 -6.8 °C -8.6 °C 34388.2 hPa North 35.4 km/h 21.6 km/h 82 % 0 mm
00:54 -6.8 °C -8.4 °C 34391.6 hPa North 29.5 km/h 14 km/h 83 % 0 mm
00:59 -6.8 °C -8.6 °C 34395 hPa North 32.8 km/h 17.9 km/h 82 % 0 mm
01:04 -6.8 °C -8.6 °C 34388.2 hPa North 29.8 km/h 17.9 km/h 82 % 0 mm
01:09 -6.9 °C -8.7 °C 34391.6 hPa North 32.8 km/h 15.6 km/h 82 % 0 mm
01:14 -6.8 °C -8.6 °C 34391.6 hPa North 29.8 km/h 9.8 km/h 82 % 0 mm
01:19 -6.8 °C -8.6 °C 34395 hPa North 20.9 km/h 11.6 km/h 82 % 0 mm
01:24 -6.8 °C -8.6 °C 34384.8 hPa North 26.9 km/h 11.6 km/h 82 % 0 mm
01:29 -6.8 °C -8.7 °C 34384.8 hPa North 23.8 km/h 14 km/h 81 % 0 mm
01:34 -6.8 °C -8.7 °C 34391.6 hPa North 20.9 km/h 11.6 km/h 81 % 0 mm
01:39 -6.9 °C -8.7 °C 34384.8 hPa North 26.9 km/h 9.8 km/h 82 % 0 mm
01:44 -6.9 °C -8.7 °C 34388.2 hPa North 26.9 km/h 17.9 km/h 82 % 0 mm
01:49 -6.9 °C -8.7 °C 34388.2 hPa North 26.9 km/h 9.8 km/h 82 % 0 mm
01:54 -6.9 °C -8.8 °C 34381.4 hPa North 26.9 km/h 15.6 km/h 81 % 0 mm
01:59 -7 °C -8.8 °C 34381.4 hPa North 27.7 km/h 19.6 km/h 81 % 0 mm
02:04 -7 °C -8.8 °C 34384.8 hPa North 17.9 km/h 11.6 km/h 81 % 0 mm
02:09 -6.9 °C -8.9 °C 34384.8 hPa North 19.6 km/h 14 km/h 80 % 0 mm
02:14 -6.9 °C -8.9 °C 34384.8 hPa North 17.9 km/h 11.6 km/h 80 % 0 mm
02:19 -6.9 °C -8.8 °C 34384.8 hPa North 19.6 km/h 11.6 km/h 81 % 0 mm
02:24 -7 °C -8.8 °C 34381.4 hPa North 17.9 km/h 5.6 km/h 81 % 0 mm
02:29 -7.1 °C -8.8 °C 34378.1 hPa North 23.8 km/h 15.6 km/h 82 % 0 mm
02:34 -7.1 °C -8.8 °C 34378.1 hPa North 23.8 km/h 15.6 km/h 83 % 0 mm
02:39 -7.2 °C -8.7 °C 34367.9 hPa North 31.4 km/h 17.9 km/h 85 % 0 mm
02:44 -7.3 °C -8.6 °C 34364.5 hPa North 32.8 km/h 19.6 km/h 86 % 0 mm
02:49 -7.2 °C -8.8 °C 34357.7 hPa North 29.5 km/h 19.6 km/h 84 % 0 mm
02:54 -7.2 °C -8.8 °C 34364.5 hPa North 23.8 km/h 9.8 km/h 84 % 0 mm
02:59 -7.2 °C -8.7 °C 34367.9 hPa North 23.8 km/h 14 km/h 84 % 0 mm
03:04 -7.1 °C -8.7 °C 34364.5 hPa North 17.9 km/h 11.6 km/h 84 % 0 mm
03:09 -7.2 °C -8.8 °C 34371.3 hPa North 26.9 km/h 11.6 km/h 83 % 0 mm
03:14 -7.1 °C -8.8 °C 34367.9 hPa North 23.8 km/h 11.6 km/h 83 % 0 mm
03:19 -7.1 °C -8.8 °C 34367.9 hPa North 20.9 km/h 14 km/h 82 % 0 mm
03:24 -7.2 °C -8.8 °C 34364.5 hPa North 29.8 km/h 17.9 km/h 83 % 0 mm
03:29 -7.2 °C -8.9 °C 34361.1 hPa North 27.7 km/h 19.6 km/h 82 % 0 mm
03:34 -7.1 °C -8.8 °C 34371.3 hPa North 23.8 km/h 11.6 km/h 82 % 0 mm
03:39 -7.1 °C -9 °C 34367.9 hPa North 20.9 km/h 14 km/h 81 % 0 mm
03:44 -7.1 °C -8.8 °C 34364.5 hPa North 17.9 km/h 11.6 km/h 82 % 0 mm
03:49 -7.2 °C -8.9 °C 34361.1 hPa North 17.9 km/h 11.6 km/h 82 % 0 mm
03:54 -7.2 °C -8.9 °C 34361.1 hPa North 21.6 km/h 15.6 km/h 82 % 0 mm
03:59 -7.2 °C -8.8 °C 34357.7 hPa North 20.9 km/h 9.8 km/h 83 % 0 mm
04:04 -7.3 °C -8.9 °C 34351 hPa North 23.8 km/h 15.6 km/h 83 % 0 mm
04:09 -7.3 °C -8.8 °C 34351 hPa North 26.9 km/h 8 km/h 84 % 0 mm
04:14 -7.3 °C -8.8 °C 34354.4 hPa North 15 km/h 5.6 km/h 84 % 0 mm
04:19 -7.4 °C -8.8 °C 34351 hPa North 19.6 km/h 14 km/h 85 % 0 mm
04:24 -7.6 °C -8.9 °C 34347.6 hPa North 15 km/h 9.8 km/h 86 % 0 mm
04:29 -7.7 °C -8.9 °C 34351 hPa North 20.9 km/h 11.6 km/h 87 % 0 mm
04:34 -7.8 °C -8.9 °C 34347.6 hPa North 20.9 km/h 11.6 km/h 88 % 0 mm
04:39 -7.9 °C -8.9 °C 34344.2 hPa North 20.9 km/h 14 km/h 89 % 0 mm
04:44 -7.9 °C -8.8 °C 34340.8 hPa North 21.6 km/h 14 km/h 90 % 0 mm
04:49 -7.9 °C -8.8 °C 34344.2 hPa North 15 km/h 5.6 km/h 90 % 0 mm
04:54 -7.9 °C -8.7 °C 34340.8 hPa North 15 km/h 5.6 km/h 91 % 0 mm
04:59 -7.9 °C -8.8 °C 34334 hPa North 19.6 km/h 14 km/h 91 % 0 mm
05:04 -8 °C -8.7 °C 34340.8 hPa North 20.9 km/h 14 km/h 92 % 0 mm
05:09 -8 °C -8.7 °C 34340.8 hPa North 21.6 km/h 15.6 km/h 93 % 0 mm
05:14 -8.1 °C -8.6 °C 34334 hPa North 21.6 km/h 14 km/h 94 % 0 mm
05:19 -8.2 °C -8.4 °C 34340.8 hPa North 29.8 km/h 17.9 km/h 97 % 0 mm
05:24 -8.2 °C -8.3 °C 34340.8 hPa North 23.8 km/h 9.8 km/h 99 % 0 mm
05:29 -8.3 °C -8.4 °C 34337.4 hPa North 23.8 km/h 14 km/h 99 % 0 mm
05:34 -8.3 °C -8.4 °C 34337.4 hPa North 21.6 km/h 15.6 km/h 99 % 0 mm
05:39 -8.4 °C -8.5 °C 34344.2 hPa North 23.8 km/h 17.9 km/h 99 % 0 mm
05:44 -8.4 °C -8.5 °C 34344.2 hPa North 20.9 km/h 14 km/h 99 % 0 mm
05:49 -8.5 °C -8.6 °C 34347.6 hPa North 20.9 km/h 11.6 km/h 99 % 0 mm
05:54 -8.5 °C -8.6 °C 34344.2 hPa North 21.6 km/h 15.6 km/h 99 % 0 mm
05:59 -8.5 °C -8.6 °C 34347.6 hPa North 27.7 km/h 21.6 km/h 99 % 0 mm
06:04 -8.5 °C -8.6 °C 34347.6 hPa North 29.8 km/h 14 km/h 99 % 0 mm
06:09 -8.5 °C -8.6 °C 34347.6 hPa North 27.7 km/h 14 km/h 99 % 0 mm
06:14 -8.5 °C -8.6 °C 34347.6 hPa North 26.9 km/h 15.6 km/h 99 % 0 mm
06:19 -8.6 °C -8.7 °C 34347.6 hPa North 26.9 km/h 15.6 km/h 99 % 0 mm
06:24 -8.6 °C -8.7 °C 34344.2 hPa North 23.8 km/h 15.6 km/h 99 % 0 mm
06:29 -8.6 °C -8.7 °C 34347.6 hPa North 19.6 km/h 11.6 km/h 99 % 0 mm
06:34 -8.7 °C -8.8 °C 34347.6 hPa North 20.9 km/h 9.8 km/h 99 % 0 mm
06:39 -8.7 °C -8.8 °C 34347.6 hPa North 17.9 km/h 5.6 km/h 99 % 0 mm
06:44 -8.7 °C -8.8 °C 34347.6 hPa North 15 km/h 8 km/h 99 % 0 mm
06:49 -8.7 °C -8.8 °C 34347.6 hPa North 15 km/h 8 km/h 99 % 0 mm
06:54 -8.7 °C -8.8 °C 34354.4 hPa North 11.9 km/h 8 km/h 99 % 0 mm
06:59 -8.8 °C -8.8 °C 34347.6 hPa North 15 km/h 9.8 km/h 99 % 0 mm
07:04 -8.8 °C -8.9 °C 34351 hPa North 15 km/h 9.8 km/h 99 % 0 mm
07:09 -8.9 °C -9 °C 34357.7 hPa North 17.9 km/h 8 km/h 99 % 0 mm
07:14 -8.9 °C -9.1 °C 34357.7 hPa North 11.6 km/h 9.8 km/h 99 % 0 mm
07:19 -9.1 °C -9.1 °C 34361.1 hPa North 15 km/h 11.6 km/h 99 % 0 mm
07:24 -8.9 °C -9.1 °C 34364.5 hPa North 17.9 km/h 11.6 km/h 99 % 0 mm
07:29 -8.8 °C -8.9 °C 34371.3 hPa North 15 km/h 9.8 km/h 99 % 0 mm
07:34 -8.7 °C -8.8 °C 34367.9 hPa North 17.9 km/h 14 km/h 99 % 0 mm
07:39 -8.6 °C -8.7 °C 34371.3 hPa North 17.9 km/h 11.6 km/h 99 % 0 mm
07:44 -8.6 °C -8.7 °C 34378.1 hPa North 17.9 km/h 11.6 km/h 99 % 0 mm
07:49 -8.5 °C -8.6 °C 34381.4 hPa North 20.9 km/h 9.8 km/h 99 % 0 mm
07:54 -8.4 °C -8.5 °C 34378.1 hPa North 20.9 km/h 11.6 km/h 99 % 0 mm
07:59 -8.4 °C -8.5 °C 34378.1 hPa North 19.6 km/h 11.6 km/h 99 % 0 mm
08:04 -8.2 °C -8.3 °C 34381.4 hPa North 20.9 km/h 8 km/h 99 % 0 mm
08:09 -8.1 °C -8.2 °C 34378.1 hPa North 21.6 km/h 11.6 km/h 99 % 0 mm
08:14 -7.8 °C -8.1 °C 34378.1 hPa North 15.6 km/h 8 km/h 97 % 0 mm
08:19 -7.8 °C -8.2 °C 34374.7 hPa North 26.9 km/h 15.6 km/h 96 % 0 mm
08:24 -7.9 °C -8.2 °C 34374.7 hPa North 32.8 km/h 17.9 km/h 97 % 0 mm
08:29 -7.7 °C -8 °C 34371.3 hPa North 26.9 km/h 5.6 km/h 97 % 0 mm
08:34 -7.6 °C -8 °C 34371.3 hPa North 23.8 km/h 14 km/h 95 % 0 mm
08:39 -7.3 °C -7.9 °C 34374.7 hPa North 29.8 km/h 11.6 km/h 94 % 0 mm
08:44 -7.2 °C -7.8 °C 34374.7 hPa North 20.9 km/h 9.8 km/h 93 % 0 mm
08:49 -7.1 °C -7.8 °C 34371.3 hPa North 20.9 km/h 9.8 km/h 92 % 0 mm
08:54 -6.9 °C -7.9 °C 34378.1 hPa North 23.8 km/h 15.6 km/h 90 % 0 mm
08:59 -6.8 °C -7.8 °C 34374.7 hPa North 23.8 km/h 11.6 km/h 89 % 0 mm
09:04 -6.8 °C -7.9 °C 34378.1 hPa North 26.9 km/h 15.6 km/h 89 % 0 mm
09:09 -6.8 °C -7.9 °C 34374.7 hPa North 20.9 km/h 14 km/h 88 % 0 mm
09:14 -6.8 °C -7.9 °C 34374.7 hPa North 20.9 km/h 5.6 km/h 89 % 0 mm
09:19 -6.6 °C -7.8 °C 34378.1 hPa North 15.6 km/h 11.6 km/h 87 % 0 mm
09:24 -6.8 °C -7.9 °C 34378.1 hPa North 20.9 km/h 9.8 km/h 88 % 0 mm
09:29 -6.8 °C -7.9 °C 34381.4 hPa North 20.9 km/h 11.6 km/h 88 % 0 mm
09:34 -6.8 °C -7.9 °C 34378.1 hPa North 20.9 km/h 8 km/h 88 % 0 mm
09:39 -6.6 °C -7.8 °C 34381.4 hPa North 17.9 km/h 4.2 km/h 87 % 0 mm
09:44 -6.5 °C -7.7 °C 34381.4 hPa North 9 km/h 4.2 km/h 87 % 0 mm
09:49 -6.4 °C -7.7 °C 34381.4 hPa North 15 km/h 4.2 km/h 86 % 0 mm
09:54 -6.3 °C -7.8 °C 34378.1 hPa North 15 km/h 8 km/h 84 % 0 mm
09:59 -6.2 °C -7.8 °C 34381.4 hPa North 9 km/h 5.6 km/h 83 % 0 mm
10:04 -6.1 °C -8 °C 34378.1 hPa North 19.6 km/h 14 km/h 81 % 0 mm
10:09 -6.1 °C -7.9 °C 34381.4 hPa North 9 km/h 5.6 km/h 81 % 0 mm
10:14 -5.9 °C -7.9 °C 34381.4 hPa North 15 km/h 5.6 km/h 80 % 0 mm
10:19 -5.8 °C -7.9 °C 34381.4 hPa North 11.6 km/h 8 km/h 79 % 0 mm
10:24 -5.7 °C -7.9 °C 34381.4 hPa North 15 km/h 5.6 km/h 78 % 0 mm
10:29 -5.7 °C -7.9 °C 34381.4 hPa North 11.9 km/h 5.6 km/h 78 % 0 mm
10:34 -5.6 °C -7.8 °C 34381.4 hPa North 15 km/h 5.6 km/h 78 % 0 mm
10:39 -5.5 °C -7.8 °C 34381.4 hPa North 9 km/h 1.8 km/h 77 % 0 mm
10:44 -5.2 °C -7.8 °C 34378.1 hPa North 3.1 km/h   75 % 0 mm
10:49 -5 °C -7.7 °C 34378.1 hPa North 9.8 km/h 5.6 km/h 74 % 0 mm
10:54 -4.6 °C -7.3 °C 34374.7 hPa North 6 km/h   74 % 0 mm
10:59 -4.4 °C -7.4 °C 34378.1 hPa North 6 km/h 1.8 km/h 72 % 0 mm
11:04 -4.2 °C -7.3 °C 34374.7 hPa North 9.8 km/h 4.2 km/h 71 % 0 mm
11:09 -4.1 °C -7.2 °C 34378.1 hPa North 8 km/h 4.2 km/h 71 % 0 mm
11:14 -3.9 °C -7.1 °C 34374.7 hPa North 8 km/h 4.2 km/h 71 % 0 mm
11:19 -4.1 °C -7.1 °C 34374.7 hPa North 9.8 km/h 4.2 km/h 72 % 0 mm
11:24 -3.7 °C -6.7 °C 34374.7 hPa North 9 km/h   72 % 0 mm
11:29 -3.7 °C -6.8 °C 34374.7 hPa North 9 km/h 4.2 km/h 71 % 0 mm
11:34 -4 °C -6.8 °C 34378.1 hPa North 15 km/h 8 km/h 74 % 0 mm
11:39 -3.9 °C -6.3 °C 34374.7 hPa North 15.6 km/h 5.6 km/h 77 % 0 mm
11:44 -4 °C -6.4 °C 34371.3 hPa North 23.8 km/h 15.6 km/h 77 % 0 mm
11:49 -3.9 °C -6.4 °C 34374.7 hPa North 19.6 km/h 14 km/h 76 % 0 mm
11:54 -4.2 °C -6.6 °C 34371.3 hPa North 20.9 km/h 1.8 km/h 77 % 0 mm
11:59 -3.8 °C -6.3 °C 34371.3 hPa North 17.9 km/h 9.8 km/h 76 % 0 mm
12:04 -3.7 °C -6.3 °C 34371.3 hPa North 9.8 km/h 5.6 km/h 75 % 0 mm
12:09 -3.7 °C -6.4 °C 34374.7 hPa North 20.9 km/h 9.8 km/h 74 % 0 mm
12:14 -3.6 °C -6.3 °C 34374.7 hPa North 15 km/h 1.8 km/h 75 % 0 mm
12:19 -3.6 °C -6.3 °C 34374.7 hPa North 17.9 km/h 5.6 km/h 75 % 0 mm
12:24 -3.4 °C -6.2 °C 34371.3 hPa North 14 km/h 8 km/h 74 % 0 mm
12:29 -3.4 °C -6.2 °C 34371.3 hPa North 9 km/h 1.8 km/h 74 % 0 mm
12:34 -3.3 °C -6.3 °C 34371.3 hPa North 17.9 km/h 5.6 km/h 72 % 0 mm
12:39 -3.2 °C -6.4 °C 34371.3 hPa North 15.6 km/h 5.6 km/h 70 % 0 mm
12:44 -3.4 °C -6.6 °C 34367.9 hPa North 17.9 km/h 5.6 km/h 71 % 0 mm
12:49 -3.3 °C -6.6 °C 34367.9 hPa North 11.9 km/h 8 km/h 70 % 0 mm
12:54 -3.1 °C -6.4 °C 34364.5 hPa North 19.6 km/h 14 km/h 70 % 0 mm
12:59 -3.1 °C -6.5 °C 34367.9 hPa North 15 km/h 4.2 km/h 69 % 0 mm
13:04 -3.1 °C -6.7 °C 34364.5 hPa North 15 km/h 1.8 km/h 67 % 0 mm
13:09 -3.1 °C -6.6 °C 34367.9 hPa North 17.9 km/h 11.6 km/h 68 % 0 mm
13:14 -3.1 °C -6.5 °C 34367.9 hPa North 9 km/h   69 % 0 mm
13:19 -2.8 °C -6.3 °C 34371.3 hPa North 15 km/h 1.8 km/h 68 % 0 mm
13:24 -2.8 °C -6.2 °C 34364.5 hPa North 9.8 km/h 4.2 km/h 69 % 0 mm
13:29 -2.8 °C -6.3 °C 34361.1 hPa North 9.8 km/h 4.2 km/h 68 % 0 mm
13:34 -2.6 °C -6.3 °C 34361.1 hPa North 9.8 km/h 4.2 km/h 67 % 0 mm
13:39 -2.4 °C -6.6 °C 34361.1 hPa North 21.6 km/h 14 km/h 64 % 0 mm
13:44 -2.8 °C -7.1 °C 34361.1 hPa North 15 km/h 8 km/h 63 % 0 mm
13:49 -2.7 °C -6.9 °C 34357.7 hPa North 15 km/h 5.6 km/h 63 % 0 mm
13:54 -2.7 °C -6.9 °C 34357.7 hPa North 17.9 km/h 11.6 km/h 63 % 0 mm
13:59 -2.6 °C -6.9 °C 34354.4 hPa North 9 km/h 1.8 km/h 62 % 0 mm
14:04 -2.3 °C -6.8 °C 34351 hPa North 9 km/h 4.2 km/h 62 % 0 mm
14:09 -2.2 °C -6.5 °C 34351 hPa North 17.9 km/h 5.6 km/h 63 % 0 mm
14:14 -2.5 °C -6.9 °C 34354.4 hPa North 29.8 km/h 9.8 km/h 62 % 0 mm
14:19 -2.3 °C -6.8 °C 34351 hPa North 20.9 km/h 9.8 km/h 62 % 0 mm
14:24 -2.7 °C -7.4 °C 34354.4 hPa North 17.9 km/h 11.6 km/h 60 % 0 mm
14:29 -2.7 °C -7.1 °C 34351 hPa North 15 km/h 5.6 km/h 62 % 0 mm
14:34 -2.6 °C -7 °C 34351 hPa North 9 km/h 1.8 km/h 62 % 0 mm
14:39 -2.4 °C -6.8 °C 34347.6 hPa North 17.9 km/h 4.2 km/h 62 % 0 mm
14:44 -2.2 °C -6.8 °C 34344.2 hPa North 15.6 km/h 9.8 km/h 61 % 0 mm
14:49 -2.3 °C -6.8 °C 34344.2 hPa North 17.9 km/h 11.6 km/h 61 % 0 mm
14:54 -2.1 °C -6.8 °C 34347.6 hPa North 11.6 km/h 5.6 km/h 60 % 0 mm
14:59 -1.9 °C -7 °C 34344.2 hPa North 11.9 km/h 5.6 km/h 58 % 0 mm
15:04 -1.8 °C -7.3 °C 34340.8 hPa North 17.9 km/h 5.6 km/h 55 % 0 mm
15:09 -2 °C -7.5 °C 34344.2 hPa North 17.9 km/h 5.6 km/h 55 % 0 mm
15:14 -2.2 °C -7.6 °C 34344.2 hPa North 15.6 km/h 9.8 km/h 56 % 0 mm
15:19 -2.2 °C -7.6 °C 34340.8 hPa North 15 km/h 1.8 km/h 56 % 0 mm
15:24 -1.9 °C -7.4 °C 34340.8 hPa North 9 km/h 4.2 km/h 55 % 0 mm
15:29 -1.7 °C -7.1 °C 34337.4 hPa North 23.8 km/h 8 km/h 56 % 0 mm
15:34 -1.7 °C -7.3 °C 34337.4 hPa North 26.9 km/h 1.8 km/h 55 % 0 mm
15:39 -1.4 °C -7.2 °C 34337.4 hPa North 14 km/h 5.6 km/h 54 % 0 mm
15:44 -1.3 °C -7.2 °C 34330.7 hPa North 11.9 km/h 5.6 km/h 53 % 0 mm
15:49 -1.3 °C -7.6 °C 34330.7 hPa North 20.9 km/h 5.6 km/h 51 % 0 mm
15:54 -1.3 °C -8.2 °C 34330.7 hPa North 31.4 km/h 15.6 km/h 47 % 0 mm
15:59 -1.3 °C -8.1 °C 34330.7 hPa North 15 km/h 4.2 km/h 48 % 0 mm
16:04 -1.2 °C -7.9 °C 34330.7 hPa North 26.9 km/h 14 km/h 48 % 0 mm
16:09 -1.3 °C -8.1 °C 34327.3 hPa North 27.7 km/h 19.6 km/h 48 % 0 mm
16:14 -1.4 °C -8.3 °C 34323.9 hPa North 25.4 km/h 17.9 km/h 47 % 0 mm
16:19 -1.4 °C -8.5 °C 34330.7 hPa North 29.8 km/h 9.8 km/h 46 % 0 mm
16:24 -1.2 °C -8.1 °C 34330.7 hPa North 17.9 km/h 14 km/h 47 % 0 mm
16:29 -1.2 °C -8.1 °C 34330.7 hPa North 23.8 km/h 14 km/h 47 % 0 mm
16:34 -1.2 °C -8 °C 34327.3 hPa North 20.9 km/h 11.6 km/h 48 % 0 mm
16:39 -1.4 °C -8.2 °C 34323.9 hPa North 17.9 km/h 11.6 km/h 48 % 0 mm
16:44 -1.5 °C -8.2 °C 34317.1 hPa North 17.9 km/h 11.6 km/h 48 % 0 mm
16:49 -1.4 °C -8.6 °C 34320.5 hPa North 27.7 km/h 19.6 km/h 46 % 0 mm
16:54 -1.4 °C -8.6 °C 34323.9 hPa North 17.9 km/h 11.6 km/h 46 % 0 mm
16:59 -1.4 °C -8.4 °C 34320.5 hPa North 23.8 km/h 1.8 km/h 47 % 0 mm
17:04 -1.4 °C -8.4 °C 34320.5 hPa North 5.6 km/h 1.8 km/h 47 % 0 mm
17:09 -1.4 °C -8.3 °C 34320.5 hPa North 14 km/h 8 km/h 47 % 0 mm
17:14 -1.2 °C -8.3 °C 34320.5 hPa North 11.9 km/h 5.6 km/h 46 % 0 mm
17:19 -1.1 °C -8.3 °C 34317.1 hPa North 15 km/h 8 km/h 46 % 0 mm
17:24 -1 °C -7.9 °C 34313.7 hPa North 15.6 km/h 9.8 km/h 47 % 0 mm
17:29 -0.7 °C -7.7 °C 34310.3 hPa North 9.8 km/h 5.6 km/h 47 % 0 mm
17:34 -0.7 °C -7.9 °C 34313.7 hPa North 15 km/h 8 km/h 46 % 0 mm
17:39 -0.7 °C -8.3 °C 34317.1 hPa North 15.6 km/h 8 km/h 44 % 0 mm
17:44 -0.8 °C -8.2 °C 34317.1 hPa North 20.9 km/h 8 km/h 45 % 0 mm
17:49 -0.5 °C -8.1 °C 34310.3 hPa North 23.8 km/h 17.9 km/h 44 % 0 mm
17:54 -0.8 °C -8.2 °C 34307 hPa North 26.9 km/h 8 km/h 45 % 0 mm
17:59 -0.7 °C -8.1 °C 34310.3 hPa North 20.9 km/h 9.8 km/h 45 % 0 mm
18:04 -0.5 °C -7.9 °C 34313.7 hPa North 14 km/h 5.6 km/h 45 % 0 mm
18:09 -0.6 °C -8.2 °C 34303.6 hPa North 15 km/h 4.2 km/h 44 % 0 mm
18:14 -0.3 °C -7.9 °C 34313.7 hPa North 17.9 km/h 11.6 km/h 44 % 0 mm
18:19 -0.6 °C -8 °C 34310.3 hPa North 15 km/h 8 km/h 45 % 0 mm
meteodaganzo
Elogios de Weather Underground - 2.5 mb

Guión original por  Jim McMurry - jmcmurry@mwt.net Adaptado para la plantilla por  Wim van der Kuil - Leuven-Template.eu

Usted encontrará nuestra información del tiempo también en:

WeatherCloud

Weather Underground

Iberian Peninsula Weather Network

AWEKAS

Citizen Weather Observer Program (CWOP)